createdAt,value
2016-12-04T10:15:49.070Z,10.14
2016-12-04T10:17:03.937Z,10.07
2016-12-04T10:18:20.817Z,10.33
2016-12-04T10:19:33.637Z,10.42
2016-12-04T10:20:45.672Z,10.66
2016-12-04T10:22:01.250Z,10.43
2016-12-04T10:23:17.426Z,10.33
2016-12-04T10:24:33.831Z,10.4
2016-12-04T10:25:48.136Z,10.39
2016-12-04T10:27:03.379Z,10.43
2016-12-04T10:28:18.026Z,10.25
2016-12-04T10:29:34.559Z,10.17
2016-12-04T10:30:51.580Z,10.28
2016-12-04T10:32:07.895Z,10.19
2016-12-04T10:33:21.677Z,9.96
2016-12-04T10:34:34.867Z,9.6
2016-12-04T10:35:48.048Z,9.09
2016-12-04T10:37:02.107Z,8.76
2016-12-04T10:38:17.308Z,8.48
2016-12-04T10:39:30.262Z,8.26
2016-12-04T10:40:43.779Z,8.07
2016-12-04T10:41:58.668Z,7.9
2016-12-04T10:43:13.888Z,7.6
2016-12-04T10:44:28.598Z,7.37
2016-12-04T10:45:44.925Z,7.16
2016-12-04T10:47:01.685Z,7.08
2016-12-04T10:48:17.473Z,6.84
2016-12-04T10:49:33.363Z,6.46
2016-12-04T10:50:45.300Z,6.16
2016-12-04T10:52:01.641Z,5.96
2016-12-04T10:53:17.609Z,5.67
2016-12-04T10:54:31.529Z,5.37
2016-12-04T10:55:46.697Z,5.13
2016-12-04T10:57:02.659Z,5.01
2016-12-04T10:58:17.468Z,4.76
2016-12-04T10:59:33.787Z,4.39
2016-12-04T11:00:48.864Z,4.33
2016-12-04T11:02:03.906Z,4.14
2016-12-04T11:03:18.030Z,4.12
2016-12-04T11:04:34.481Z,3.92
2016-12-04T11:05:51.183Z,3.76
2016-12-04T11:07:04.651Z,3.49
2016-12-04T11:08:19.486Z,3.5
2016-12-04T11:09:32.899Z,3.3
2016-12-04T11:10:47.744Z,3.28
2016-12-04T11:12:03.219Z,3.21
2016-12-04T11:13:16.868Z,3.13
2016-12-04T11:14:32.164Z,3.05
2016-12-04T11:15:47.406Z,2.94
2016-12-04T11:17:03.863Z,2.97
2016-12-04T11:18:20.178Z,2.88
2016-12-04T11:19:36.980Z,2.91
2016-12-04T11:20:54.121Z,2.84
2016-12-04T11:22:10.177Z,2.76
2016-12-04T11:23:24.705Z,2.71
2016-12-04T11:24:38.079Z,2.69
2016-12-04T11:25:53.790Z,2.73
2016-12-04T11:27:08.837Z,2.71
2016-12-04T11:28:24.577Z,2.69
2016-12-04T11:29:39.322Z,2.63
2016-12-04T11:30:56.534Z,2.58
2016-12-04T11:32:11.572Z,2.59
2016-12-04T11:33:25.054Z,2.59
2016-12-04T11:34:41.918Z,2.63
2016-12-04T11:35:55.917Z,2.59
2016-12-04T11:37:09.318Z,2.58
2016-12-04T11:38:25.690Z,2.58
2016-12-04T11:39:40.153Z,2.56
2016-12-04T11:40:56.099Z,2.61
2016-12-04T11:42:11.124Z,2.55
2016-12-04T11:43:24.113Z,2.55
2016-12-04T11:44:40.498Z,2.53
2016-12-04T11:45:55.333Z,2.55
2016-12-04T11:47:10.820Z,2.55
2016-12-04T11:48:27.325Z,2.58
2016-12-04T11:49:42.784Z,2.53
2016-12-04T11:50:57.484Z,2.53
2016-12-04T11:52:12.088Z,2.49
2016-12-04T11:53:27.994Z,2.53
2016-12-04T11:54:42.739Z,2.52
2016-12-04T11:55:59.200Z,2.58
2016-12-04T11:57:14.189Z,2.56
2016-12-04T11:58:29.743Z,2.58
2016-12-04T11:59:46.521Z,2.55
2016-12-04T12:01:01.672Z,2.48
2016-12-04T12:02:16.725Z,2.51
2016-12-04T12:03:31.764Z,2.59
2016-12-04T12:04:46.525Z,2.49
2016-12-04T12:06:00.970Z,2.63
2016-12-04T12:07:16.318Z,2.63
2016-12-04T12:08:30.789Z,2.52
2016-12-04T12:09:45.836Z,2.63
2016-12-04T12:11:02.493Z,2.69
2016-12-04T12:12:19.097Z,2.7
2016-12-04T12:13:35.452Z,2.64
2016-12-04T12:14:50.316Z,2.63
2016-12-04T12:16:06.254Z,2.61
2016-12-04T12:17:20.473Z,2.63
2016-12-04T12:18:36.164Z,2.67
2016-12-04T12:19:52.735Z,2.64
2016-12-04T12:21:06.866Z,2.7
2016-12-04T12:22:23.430Z,2.71
2016-12-04T12:23:39.921Z,2.67
2016-12-04T12:24:55.419Z,2.63
2016-12-04T12:26:10.841Z,2.64
2016-12-04T12:27:25.346Z,2.7
2016-12-04T12:28:41.561Z,2.67
2016-12-04T12:29:58.150Z,2.76
2016-12-04T12:31:14.472Z,2.74
2016-12-04T12:32:30.862Z,2.77
2016-12-04T12:33:44.249Z,2.81
2016-12-04T12:34:59.522Z,2.74
2016-12-04T12:36:15.243Z,2.79
2016-12-04T12:37:29.541Z,2.82
2016-12-04T12:38:46.250Z,2.79
2016-12-04T12:40:02.728Z,2.85
2016-12-04T12:41:17.409Z,2.89
2016-12-04T12:42:31.773Z,2.84
2016-12-04T12:43:47.925Z,2.88
2016-12-04T12:45:01.461Z,2.82
2016-12-04T12:46:17.470Z,2.92
2016-12-04T12:47:34.255Z,2.87
2016-12-04T12:48:49.417Z,2.84
2016-12-04T12:50:06.115Z,2.95
2016-12-04T12:51:20.728Z,2.91
2016-12-04T12:52:34.460Z,2.92
2016-12-04T12:53:47.527Z,2.94
2016-12-04T12:55:02.504Z,2.95
2016-12-04T12:56:18.245Z,3.05
2016-12-04T12:57:34.982Z,2.91
2016-12-04T12:58:49.590Z,2.95
2016-12-04T13:00:04.205Z,2.92
2016-12-04T13:01:20.169Z,2.92
2016-12-04T13:02:36.791Z,2.94
2016-12-04T13:03:53.526Z,3.06
2016-12-04T13:05:10.061Z,2.92
2016-12-04T13:06:25.326Z,3.03
2016-12-04T13:07:41.260Z,2.94
2016-12-04T13:08:55.605Z,3.02
2016-12-04T13:10:11.089Z,3.09
2016-12-04T13:11:25.409Z,3.03
2016-12-04T13:12:40.127Z,3.09
2016-12-04T13:13:55.344Z,3.03
2016-12-04T13:15:10.134Z,3.06
2016-12-04T13:16:26.597Z,3.03
2016-12-04T13:17:42.151Z,3.07
2016-12-04T13:18:58.056Z,3.09
2016-12-04T13:20:13.064Z,3.09
2016-12-04T13:21:29.087Z,3.02
2016-12-04T13:22:44.136Z,3.05
2016-12-04T13:23:58.672Z,3.06
2016-12-04T13:25:13.310Z,3.02
2016-12-04T13:26:29.358Z,3.05
2016-12-04T13:27:45.212Z,3.06
2016-12-04T13:29:01.255Z,3.06
2016-12-04T13:30:16.420Z,3.06
2016-12-04T13:31:32.385Z,3.06
2016-12-04T13:32:48.320Z,3.1
2016-12-04T13:34:02.755Z,3.12
2016-12-04T13:35:17.529Z,3.07
2016-12-04T13:36:30.660Z,3.09
2016-12-04T13:37:45.483Z,3.15
2016-12-04T13:38:58.908Z,3.1
2016-12-04T13:40:15.475Z,3.12
2016-12-04T13:41:32.168Z,3.12
2016-12-04T13:42:48.962Z,3.15
2016-12-04T13:44:06.012Z,3.13
2016-12-04T13:45:17.740Z,3.16
2016-12-04T13:46:33.986Z,3.09
2016-12-04T13:47:47.315Z,3.02
2016-12-04T13:49:03.940Z,3.05
2016-12-04T13:50:17.024Z,3.05
2016-12-04T13:51:32.172Z,3.03
2016-12-04T13:52:47.911Z,3.05
2016-12-04T13:54:04.076Z,3.09
2016-12-04T13:55:18.132Z,3.03
2016-12-04T13:56:34.132Z,3.05
2016-12-04T13:57:48.917Z,3
2016-12-04T13:59:04.038Z,3
2016-12-04T14:00:20.188Z,2.95
2016-12-04T14:01:35.948Z,3.05
2016-12-04T14:02:51.064Z,3.02
2016-12-04T14:04:04.724Z,3
2016-12-04T14:05:18.138Z,2.92
2016-12-04T14:06:30.133Z,2.98
2016-12-04T14:07:46.504Z,2.97
2016-12-04T14:09:02.722Z,3.06
2016-12-04T14:10:17.770Z,3.03
2016-12-04T14:11:31.319Z,3.05
